sensor_id;sensor_type;location;lat;lon;timestamp;P1;durP1;ratioP1;P2;durP2;ratioP2
24547;SDS011;12713;51.624;4.924;2022-07-24T00:00:36;7.72;;;7.03;;
24547;SDS011;12713;51.624;4.924;2022-07-24T00:03:06;10.88;;;7.75;;
24547;SDS011;12713;51.624;4.924;2022-07-24T00:05:32;11.35;;;8.40;;
24547;SDS011;12713;51.624;4.924;2022-07-24T00:08:00;9.85;;;8.15;;
24547;SDS011;12713;51.624;4.924;2022-07-24T00:10:32;10.10;;;6.55;;
24547;SDS011;12713;51.624;4.924;2022-07-24T00:12:58;12.82;;;8.48;;
24547;SDS011;12713;51.624;4.924;2022-07-24T00:15:24;10.00;;;9.00;;
24547;SDS011;12713;51.624;4.924;2022-07-24T00:17:51;9.07;;;8.15;;
24547;SDS011;12713;51.624;4.924;2022-07-24T00:20:17;9.98;;;8.40;;
24547;SDS011;12713;51.624;4.924;2022-07-24T00:22:43;12.23;;;8.32;;
24547;SDS011;12713;51.624;4.924;2022-07-24T00:25:09;13.23;;;9.10;;
24547;SDS011;12713;51.624;4.924;2022-07-24T00:27:35;13.43;;;8.80;;
24547;SDS011;12713;51.624;4.924;2022-07-24T00:30:02;10.48;;;8.25;;
24547;SDS011;12713;51.624;4.924;2022-07-24T00:32:28;10.48;;;8.43;;
24547;SDS011;12713;51.624;4.924;2022-07-24T00:34:54;10.63;;;9.10;;
24547;SDS011;12713;51.624;4.924;2022-07-24T00:37:20;10.40;;;9.00;;
24547;SDS011;12713;51.624;4.924;2022-07-24T00:39:46;13.57;;;9.05;;
24547;SDS011;12713;51.624;4.924;2022-07-24T00:42:12;10.73;;;9.63;;
24547;SDS011;12713;51.624;4.924;2022-07-24T00:44:38;11.15;;;8.98;;
24547;SDS011;12713;51.624;4.924;2022-07-24T00:47:07;13.02;;;10.38;;
24547;SDS011;12713;51.624;4.924;2022-07-24T00:49:36;12.25;;;9.40;;
24547;SDS011;12713;51.624;4.924;2022-07-24T00:52:02;17.42;;;10.38;;
24547;SDS011;12713;51.624;4.924;2022-07-24T00:54:29;16.10;;;10.38;;
24547;SDS011;12713;51.624;4.924;2022-07-24T00:56:55;14.15;;;10.82;;
24547;SDS011;12713;51.624;4.924;2022-07-24T00:59:24;11.85;;;9.40;;
24547;SDS011;12713;51.624;4.924;2022-07-24T01:01:50;12.93;;;9.25;;
24547;SDS011;12713;51.624;4.924;2022-07-24T01:04:17;11.82;;;10.40;;
24547;SDS011;12713;51.624;4.924;2022-07-24T01:06:43;12.43;;;10.13;;
24547;SDS011;12713;51.624;4.924;2022-07-24T01:09:09;12.40;;;10.32;;
24547;SDS011;12713;51.624;4.924;2022-07-24T01:11:36;11.93;;;10.32;;
24547;SDS011;12713;51.624;4.924;2022-07-24T01:14:03;11.75;;;9.93;;
24547;SDS011;12713;51.624;4.924;2022-07-24T01:16:29;10.57;;;9.52;;
24547;SDS011;12713;51.624;4.924;2022-07-24T01:18:56;15.88;;;10.73;;
24547;SDS011;12713;51.624;4.924;2022-07-24T01:21:22;14.43;;;10.55;;
24547;SDS011;12713;51.624;4.924;2022-07-24T01:23:51;15.40;;;11.23;;
24547;SDS011;12713;51.624;4.924;2022-07-24T01:26:17;12.77;;;11.05;;
24547;SDS011;12713;51.624;4.924;2022-07-24T01:28:43;12.25;;;10.95;;
24547;SDS011;12713;51.624;4.924;2022-07-24T01:31:09;14.38;;;12.45;;
24547;SDS011;12713;51.624;4.924;2022-07-24T01:33:35;16.80;;;13.77;;
24547;SDS011;12713;51.624;4.924;2022-07-24T01:36:01;16.15;;;13.85;;
24547;SDS011;12713;51.624;4.924;2022-07-24T01:38:27;14.48;;;12.70;;
24547;SDS011;12713;51.624;4.924;2022-07-24T01:40:53;18.42;;;14.82;;
24547;SDS011;12713;51.624;4.924;2022-07-24T01:43:19;21.70;;;14.38;;
24547;SDS011;12713;51.624;4.924;2022-07-24T01:45:46;16.80;;;14.32;;
24547;SDS011;12713;51.624;4.924;2022-07-24T01:48:12;16.40;;;14.40;;
24547;SDS011;12713;51.624;4.924;2022-07-24T01:50:38;19.60;;;16.80;;
24547;SDS011;12713;51.624;4.924;2022-07-24T01:53:10;17.15;;;14.48;;
24547;SDS011;12713;51.624;4.924;2022-07-24T01:55:36;17.57;;;15.50;;
24547;SDS011;12713;51.624;4.924;2022-07-24T01:58:02;17.98;;;16.10;;
24547;SDS011;12713;51.624;4.924;2022-07-24T02:00:28;17.98;;;13.85;;
24547;SDS011;12713;51.624;4.924;2022-07-24T02:02:54;21.55;;;16.98;;
24547;SDS011;12713;51.624;4.924;2022-07-24T02:05:20;18.20;;;15.02;;
24547;SDS011;12713;51.624;4.924;2022-07-24T02:07:53;24.30;;;18.85;;
24547;SDS011;12713;51.624;4.924;2022-07-24T02:10:19;20.70;;;17.73;;
24547;SDS011;12713;51.624;4.924;2022-07-24T02:12:45;24.10;;;18.77;;
24547;SDS011;12713;51.624;4.924;2022-07-24T02:15:11;24.58;;;19.50;;
24547;SDS011;12713;51.624;4.924;2022-07-24T02:17:37;21.45;;;18.10;;
24547;SDS011;12713;51.624;4.924;2022-07-24T02:20:06;23.85;;;19.92;;
24547;SDS011;12713;51.624;4.924;2022-07-24T02:22:33;27.77;;;24.25;;
24547;SDS011;12713;51.624;4.924;2022-07-24T02:24:59;30.77;;;21.70;;
24547;SDS011;12713;51.624;4.924;2022-07-24T02:27:25;22.67;;;18.73;;
24547;SDS011;12713;51.624;4.924;2022-07-24T02:29:51;24.00;;;21.05;;
24547;SDS011;12713;51.624;4.924;2022-07-24T02:32:17;27.45;;;23.00;;
24547;SDS011;12713;51.624;4.924;2022-07-24T02:34:43;27.50;;;23.83;;
24547;SDS011;12713;51.624;4.924;2022-07-24T02:37:09;26.35;;;21.27;;
24547;SDS011;12713;51.624;4.924;2022-07-24T02:39:35;29.25;;;24.40;;
24547;SDS011;12713;51.624;4.924;2022-07-24T02:42:01;31.75;;;24.90;;
24547;SDS011;12713;51.624;4.924;2022-07-24T02:44:27;27.83;;;22.40;;
24547;SDS011;12713;51.624;4.924;2022-07-24T02:46:53;34.53;;;25.20;;
24547;SDS011;12713;51.624;4.924;2022-07-24T02:49:19;30.75;;;25.13;;
24547;SDS011;12713;51.624;4.924;2022-07-24T02:51:45;28.23;;;20.52;;
24547;SDS011;12713;51.624;4.924;2022-07-24T02:54:12;29.42;;;21.48;;
24547;SDS011;12713;51.624;4.924;2022-07-24T02:56:38;23.38;;;20.58;;
24547;SDS011;12713;51.624;4.924;2022-07-24T02:59:04;23.67;;;20.33;;
24547;SDS011;12713;51.624;4.924;2022-07-24T03:01:30;33.45;;;24.55;;
24547;SDS011;12713;51.624;4.924;2022-07-24T03:03:56;29.35;;;24.38;;
24547;SDS011;12713;51.624;4.924;2022-07-24T03:06:22;26.83;;;21.60;;
24547;SDS011;12713;51.624;4.924;2022-07-24T03:08:48;24.35;;;20.75;;
24547;SDS011;12713;51.624;4.924;2022-07-24T03:11:14;27.20;;;21.27;;
24547;SDS011;12713;51.624;4.924;2022-07-24T03:13:43;27.08;;;22.10;;
24547;SDS011;12713;51.624;4.924;2022-07-24T03:16:09;35.22;;;27.10;;
24547;SDS011;12713;51.624;4.924;2022-07-24T03:18:38;35.13;;;23.90;;
24547;SDS011;12713;51.624;4.924;2022-07-24T03:21:06;25.27;;;20.83;;
24547;SDS011;12713;51.624;4.924;2022-07-24T03:23:32;37.17;;;28.55;;
24547;SDS011;12713;51.624;4.924;2022-07-24T03:25:58;38.38;;;26.02;;
24547;SDS011;12713;51.624;4.924;2022-07-24T03:28:27;35.78;;;27.55;;
24547;SDS011;12713;51.624;4.924;2022-07-24T03:30:53;27.25;;;22.15;;
24547;SDS011;12713;51.624;4.924;2022-07-24T03:33:19;34.10;;;26.52;;
24547;SDS011;12713;51.624;4.924;2022-07-24T03:35:45;34.95;;;26.30;;
24547;SDS011;12713;51.624;4.924;2022-07-24T03:38:11;38.65;;;27.08;;
24547;SDS011;12713;51.624;4.924;2022-07-24T03:40:37;41.38;;;27.38;;
24547;SDS011;12713;51.624;4.924;2022-07-24T03:43:03;36.80;;;27.17;;
24547;SDS011;12713;51.624;4.924;2022-07-24T03:45:31;32.78;;;23.00;;
24547;SDS011;12713;51.624;4.924;2022-07-24T03:47:58;33.25;;;26.55;;
24547;SDS011;12713;51.624;4.924;2022-07-24T03:50:24;38.05;;;26.73;;
24547;SDS011;12713;51.624;4.924;2022-07-24T03:52:50;35.20;;;25.25;;
24547;SDS011;12713;51.624;4.924;2022-07-24T03:55:16;31.40;;;25.15;;
24547;SDS011;12713;51.624;4.924;2022-07-24T03:57:42;38.88;;;31.27;;
24547;SDS011;12713;51.624;4.924;2022-07-24T04:00:08;43.78;;;30.80;;
24547;SDS011;12713;51.624;4.924;2022-07-24T04:02:34;38.90;;;28.83;;
24547;SDS011;12713;51.624;4.924;2022-07-24T04:05:00;30.25;;;23.20;;
24547;SDS011;12713;51.624;4.924;2022-07-24T04:07:27;35.75;;;26.67;;
24547;SDS011;12713;51.624;4.924;2022-07-24T04:09:53;33.63;;;24.95;;
24547;SDS011;12713;51.624;4.924;2022-07-24T04:12:19;29.73;;;24.23;;
24547;SDS011;12713;51.624;4.924;2022-07-24T04:14:45;41.63;;;31.42;;
24547;SDS011;12713;51.624;4.924;2022-07-24T04:17:11;35.17;;;24.58;;
24547;SDS011;12713;51.624;4.924;2022-07-24T04:19:39;44.15;;;30.17;;
24547;SDS011;12713;51.624;4.924;2022-07-24T04:22:06;31.25;;;25.48;;
24547;SDS011;12713;51.624;4.924;2022-07-24T04:24:32;35.80;;;24.70;;
24547;SDS011;12713;51.624;4.924;2022-07-24T04:27:01;37.75;;;28.58;;
24547;SDS011;12713;51.624;4.924;2022-07-24T04:29:27;40.00;;;29.90;;
24547;SDS011;12713;51.624;4.924;2022-07-24T04:31:53;40.08;;;30.02;;
24547;SDS011;12713;51.624;4.924;2022-07-24T04:34:19;37.28;;;27.95;;
24547;SDS011;12713;51.624;4.924;2022-07-24T04:36:45;34.80;;;24.00;;
24547;SDS011;12713;51.624;4.924;2022-07-24T04:39:11;28.13;;;22.02;;
24547;SDS011;12713;51.624;4.924;2022-07-24T04:41:37;32.50;;;26.90;;
24547;SDS011;12713;51.624;4.924;2022-07-24T04:44:03;37.22;;;26.00;;
24547;SDS011;12713;51.624;4.924;2022-07-24T04:46:29;37.42;;;27.63;;
24547;SDS011;12713;51.624;4.924;2022-07-24T04:48:55;37.78;;;28.02;;
24547;SDS011;12713;51.624;4.924;2022-07-24T04:51:21;38.25;;;28.05;;
24547;SDS011;12713;51.624;4.924;2022-07-24T04:53:49;43.58;;;28.85;;
24547;SDS011;12713;51.624;4.924;2022-07-24T04:56:18;36.75;;;28.60;;
24547;SDS011;12713;51.624;4.924;2022-07-24T04:58:44;39.67;;;28.35;;
24547;SDS011;12713;51.624;4.924;2022-07-24T05:01:10;42.50;;;31.73;;
24547;SDS011;12713;51.624;4.924;2022-07-24T05:03:36;39.83;;;29.20;;
24547;SDS011;12713;51.624;4.924;2022-07-24T05:06:02;40.53;;;30.05;;
24547;SDS011;12713;51.624;4.924;2022-07-24T05:08:28;42.15;;;32.97;;
24547;SDS011;12713;51.624;4.924;2022-07-24T05:10:55;43.10;;;32.85;;
24547;SDS011;12713;51.624;4.924;2022-07-24T05:13:20;44.33;;;32.88;;
24547;SDS011;12713;51.624;4.924;2022-07-24T05:15:46;46.70;;;35.40;;
24547;SDS011;12713;51.624;4.924;2022-07-24T05:18:12;50.58;;;34.33;;
24547;SDS011;12713;51.624;4.924;2022-07-24T05:20:41;48.72;;;38.13;;
24547;SDS011;12713;51.624;4.924;2022-07-24T05:23:08;55.00;;;39.88;;
24547;SDS011;12713;51.624;4.924;2022-07-24T05:25:34;45.78;;;35.88;;
24547;SDS011;12713;51.624;4.924;2022-07-24T05:28:00;50.88;;;38.67;;
24547;SDS011;12713;51.624;4.924;2022-07-24T05:30:26;55.22;;;39.90;;
24547;SDS011;12713;51.624;4.924;2022-07-24T05:32:52;51.55;;;36.90;;
24547;SDS011;12713;51.624;4.924;2022-07-24T05:35:18;47.38;;;36.67;;
24547;SDS011;12713;51.624;4.924;2022-07-24T05:37:48;43.42;;;33.15;;
24547;SDS011;12713;51.624;4.924;2022-07-24T05:40:14;33.95;;;26.13;;
24547;SDS011;12713;51.624;4.924;2022-07-24T05:42:40;47.15;;;35.97;;
24547;SDS011;12713;51.624;4.924;2022-07-24T05:45:06;48.60;;;36.55;;
24547;SDS011;12713;51.624;4.924;2022-07-24T05:47:36;47.03;;;36.72;;
24547;SDS011;12713;51.624;4.924;2022-07-24T05:50:02;51.17;;;36.17;;
24547;SDS011;12713;51.624;4.924;2022-07-24T05:52:28;45.63;;;34.97;;
24547;SDS011;12713;51.624;4.924;2022-07-24T05:54:54;53.47;;;36.30;;
24547;SDS011;12713;51.624;4.924;2022-07-24T05:57:20;43.50;;;33.40;;
24547;SDS011;12713;51.624;4.924;2022-07-24T05:59:46;44.92;;;35.40;;
24547;SDS011;12713;51.624;4.924;2022-07-24T06:02:12;49.20;;;33.63;;
24547;SDS011;12713;51.624;4.924;2022-07-24T06:04:38;43.05;;;32.35;;
24547;SDS011;12713;51.624;4.924;2022-07-24T06:07:07;39.53;;;29.75;;
24547;SDS011;12713;51.624;4.924;2022-07-24T06:09:34;39.97;;;30.50;;
24547;SDS011;12713;51.624;4.924;2022-07-24T06:12:00;39.80;;;28.88;;
24547;SDS011;12713;51.624;4.924;2022-07-24T06:14:26;42.17;;;29.63;;
24547;SDS011;12713;51.624;4.924;2022-07-24T06:16:52;41.20;;;28.55;;
24547;SDS011;12713;51.624;4.924;2022-07-24T06:19:18;32.08;;;25.58;;
24547;SDS011;12713;51.624;4.924;2022-07-24T06:21:44;31.55;;;24.88;;
24547;SDS011;12713;51.624;4.924;2022-07-24T06:24:10;32.42;;;26.05;;
24547;SDS011;12713;51.624;4.924;2022-07-24T06:26:36;34.80;;;24.80;;
24547;SDS011;12713;51.624;4.924;2022-07-24T06:29:02;29.00;;;24.25;;
24547;SDS011;12713;51.624;4.924;2022-07-24T06:31:28;32.65;;;24.80;;
24547;SDS011;12713;51.624;4.924;2022-07-24T06:33:54;32.50;;;24.33;;
24547;SDS011;12713;51.624;4.924;2022-07-24T06:36:21;34.95;;;24.25;;
24547;SDS011;12713;51.624;4.924;2022-07-24T06:38:47;29.42;;;22.58;;
24547;SDS011;12713;51.624;4.924;2022-07-24T06:41:13;28.88;;;22.67;;
24547;SDS011;12713;51.624;4.924;2022-07-24T06:43:39;25.75;;;21.17;;
24547;SDS011;12713;51.624;4.924;2022-07-24T06:46:05;28.75;;;20.67;;
24547;SDS011;12713;51.624;4.924;2022-07-24T06:48:32;27.77;;;20.00;;
24547;SDS011;12713;51.624;4.924;2022-07-24T06:50:58;27.55;;;20.48;;
24547;SDS011;12713;51.624;4.924;2022-07-24T06:53:24;24.80;;;18.20;;
24547;SDS011;12713;51.624;4.924;2022-07-24T06:55:50;24.63;;;18.35;;
24547;SDS011;12713;51.624;4.924;2022-07-24T06:58:22;21.13;;;18.23;;
24547;SDS011;12713;51.624;4.924;2022-07-24T07:00:48;21.00;;;17.10;;
24547;SDS011;12713;51.624;4.924;2022-07-24T07:03:15;21.92;;;16.20;;
24547;SDS011;12713;51.624;4.924;2022-07-24T07:05:41;19.25;;;15.35;;
24547;SDS011;12713;51.624;4.924;2022-07-24T07:08:07;19.02;;;15.00;;
24547;SDS011;12713;51.624;4.924;2022-07-24T07:10:33;20.42;;;15.05;;
24547;SDS011;12713;51.624;4.924;2022-07-24T07:12:59;17.70;;;13.70;;
24547;SDS011;12713;51.624;4.924;2022-07-24T07:15:25;17.83;;;13.32;;
24547;SDS011;12713;51.624;4.924;2022-07-24T07:17:52;18.42;;;12.07;;
24547;SDS011;12713;51.624;4.924;2022-07-24T07:20:18;14.25;;;10.35;;
24547;SDS011;12713;51.624;4.924;2022-07-24T07:22:44;16.35;;;10.10;;
24547;SDS011;12713;51.624;4.924;2022-07-24T07:25:10;11.80;;;9.25;;
24547;SDS011;12713;51.624;4.924;2022-07-24T07:27:36;10.95;;;8.60;;
24547;SDS011;12713;51.624;4.924;2022-07-24T07:30:04;11.40;;;7.90;;
24547;SDS011;12713;51.624;4.924;2022-07-24T07:32:34;8.98;;;6.53;;
24547;SDS011;12713;51.624;4.924;2022-07-24T07:35:00;9.13;;;6.88;;
24547;SDS011;12713;51.624;4.924;2022-07-24T07:37:26;11.38;;;7.05;;
24547;SDS011;12713;51.624;4.924;2022-07-24T07:39:52;7.22;;;6.28;;
24547;SDS011;12713;51.624;4.924;2022-07-24T07:42:19;7.10;;;5.47;;
24547;SDS011;12713;51.624;4.924;2022-07-24T07:44:45;7.55;;;6.05;;
24547;SDS011;12713;51.624;4.924;2022-07-24T07:47:13;8.95;;;7.05;;
24547;SDS011;12713;51.624;4.924;2022-07-24T07:49:39;8.20;;;5.75;;
24547;SDS011;12713;51.624;4.924;2022-07-24T07:52:05;10.48;;;6.78;;
24547;SDS011;12713;51.624;4.924;2022-07-24T07:54:31;8.43;;;6.18;;
24547;SDS011;12713;51.624;4.924;2022-07-24T07:56:59;8.05;;;5.47;;
24547;SDS011;12713;51.624;4.924;2022-07-24T07:59:26;7.68;;;5.78;;
24547;SDS011;12713;51.624;4.924;2022-07-24T08:01:52;9.93;;;5.20;;
24547;SDS011;12713;51.624;4.924;2022-07-24T08:04:18;9.07;;;5.25;;
24547;SDS011;12713;51.624;4.924;2022-07-24T08:06:44;7.55;;;6.18;;
24547;SDS011;12713;51.624;4.924;2022-07-24T08:09:10;7.20;;;5.53;;
24547;SDS011;12713;51.624;4.924;2022-07-24T08:11:39;7.00;;;5.88;;
24547;SDS011;12713;51.624;4.924;2022-07-24T08:14:05;7.65;;;6.07;;
24547;SDS011;12713;51.624;4.924;2022-07-24T08:16:34;8.70;;;6.28;;
24547;SDS011;12713;51.624;4.924;2022-07-24T08:19:00;7.10;;;5.68;;
24547;SDS011;12713;51.624;4.924;2022-07-24T08:21:31;7.38;;;5.18;;
24547;SDS011;12713;51.624;4.924;2022-07-24T08:23:58;6.30;;;4.70;;
24547;SDS011;12713;51.624;4.924;2022-07-24T08:26:24;8.32;;;5.47;;
24547;SDS011;12713;51.624;4.924;2022-07-24T08:28:50;7.72;;;4.30;;
24547;SDS011;12713;51.624;4.924;2022-07-24T08:31:16;6.43;;;3.55;;
24547;SDS011;12713;51.624;4.924;2022-07-24T08:33:42;5.55;;;3.95;;
24547;SDS011;12713;51.624;4.924;2022-07-24T08:36:08;6.25;;;4.55;;
24547;SDS011;12713;51.624;4.924;2022-07-24T08:38:34;6.32;;;4.68;;
24547;SDS011;12713;51.624;4.924;2022-07-24T08:41:00;8.48;;;5.47;;
24547;SDS011;12713;51.624;4.924;2022-07-24T08:43:27;8.38;;;5.53;;
24547;SDS011;12713;51.624;4.924;2022-07-24T08:45:53;8.18;;;5.53;;
24547;SDS011;12713;51.624;4.924;2022-07-24T08:48:21;9.63;;;5.15;;
24547;SDS011;12713;51.624;4.924;2022-07-24T08:50:47;8.65;;;4.50;;
24547;SDS011;12713;51.624;4.924;2022-07-24T08:53:13;6.32;;;3.80;;
24547;SDS011;12713;51.624;4.924;2022-07-24T08:55:39;8.65;;;4.57;;
24547;SDS011;12713;51.624;4.924;2022-07-24T08:58:05;5.22;;;3.92;;
24547;SDS011;12713;51.624;4.924;2022-07-24T09:00:32;5.43;;;3.95;;
24547;SDS011;12713;51.624;4.924;2022-07-24T09:02:59;7.82;;;4.53;;
24547;SDS011;12713;51.624;4.924;2022-07-24T09:05:25;5.18;;;4.05;;
24547;SDS011;12713;51.624;4.924;2022-07-24T09:08:05;7.05;;;5.35;;
24547;SDS011;12713;51.624;4.924;2022-07-24T09:10:31;10.35;;;4.60;;
24547;SDS011;12713;51.624;4.924;2022-07-24T09:12:58;6.45;;;4.45;;
24547;SDS011;12713;51.624;4.924;2022-07-24T09:15:42;5.47;;;4.07;;
24547;SDS011;12713;51.624;4.924;2022-07-24T09:18:11;4.82;;;3.40;;
24547;SDS011;12713;51.624;4.924;2022-07-24T09:20:50;5.13;;;3.45;;
24547;SDS011;12713;51.624;4.924;2022-07-24T09:23:18;7.22;;;4.32;;
24547;SDS011;12713;51.624;4.924;2022-07-24T09:25:49;3.88;;;3.33;;
24547;SDS011;12713;51.624;4.924;2022-07-24T09:28:15;5.20;;;3.78;;
24547;SDS011;12713;51.624;4.924;2022-07-24T09:30:42;4.47;;;3.50;;
24547;SDS011;12713;51.624;4.924;2022-07-24T09:35:39;5.28;;;3.70;;
24547;SDS011;12713;51.624;4.924;2022-07-24T09:38:12;3.88;;;3.35;;
24547;SDS011;12713;51.624;4.924;2022-07-24T09:40:43;5.68;;;3.70;;
24547;SDS011;12713;51.624;4.924;2022-07-24T09:45:51;4.82;;;3.15;;
24547;SDS011;12713;51.624;4.924;2022-07-24T09:48:18;2.95;;;2.65;;
24547;SDS011;12713;51.624;4.924;2022-07-24T09:50:54;3.53;;;2.55;;
24547;SDS011;12713;51.624;4.924;2022-07-24T09:53:23;3.35;;;2.95;;
24547;SDS011;12713;51.624;4.924;2022-07-24T09:55:59;3.90;;;2.38;;
24547;SDS011;12713;51.624;4.924;2022-07-24T09:58:26;5.65;;;2.70;;
24547;SDS011;12713;51.624;4.924;2022-07-24T10:00:56;4.18;;;2.83;;
24547;SDS011;12713;51.624;4.924;2022-07-24T10:03:26;5.25;;;3.13;;
24547;SDS011;12713;51.624;4.924;2022-07-24T10:05:54;2.72;;;2.30;;
24547;SDS011;12713;51.624;4.924;2022-07-24T10:08:22;4.80;;;2.75;;
24547;SDS011;12713;51.624;4.924;2022-07-24T10:10:51;3.17;;;2.38;;
24547;SDS011;12713;51.624;4.924;2022-07-24T10:13:18;3.70;;;2.83;;
24547;SDS011;12713;51.624;4.924;2022-07-24T10:15:50;3.47;;;2.60;;
24547;SDS011;12713;51.624;4.924;2022-07-24T10:18:20;4.43;;;2.47;;
24547;SDS011;12713;51.624;4.924;2022-07-24T10:20:47;2.90;;;2.70;;
24547;SDS011;12713;51.624;4.924;2022-07-24T10:23:22;2.78;;;2.50;;
24547;SDS011;12713;51.624;4.924;2022-07-24T10:26:06;3.95;;;2.65;;
24547;SDS011;12713;51.624;4.924;2022-07-24T10:31:03;4.55;;;2.60;;
24547;SDS011;12713;51.624;4.924;2022-07-24T10:33:31;3.75;;;2.40;;
24547;SDS011;12713;51.624;4.924;2022-07-24T10:35:58;4.43;;;2.33;;
24547;SDS011;12713;51.624;4.924;2022-07-24T10:38:32;4.05;;;3.05;;
24547;SDS011;12713;51.624;4.924;2022-07-24T10:41:02;3.55;;;2.72;;
24547;SDS011;12713;51.624;4.924;2022-07-24T10:43:31;3.55;;;2.50;;
24547;SDS011;12713;51.624;4.924;2022-07-24T10:51:00;3.47;;;2.78;;
24547;SDS011;12713;51.624;4.924;2022-07-24T10:53:29;3.28;;;2.97;;
24547;SDS011;12713;51.624;4.924;2022-07-24T10:58:56;2.90;;;2.70;;
24547;SDS011;12713;51.624;4.924;2022-07-24T11:01:35;3.92;;;2.55;;
24547;SDS011;12713;51.624;4.924;2022-07-24T11:04:03;3.40;;;2.50;;
24547;SDS011;12713;51.624;4.924;2022-07-24T11:06:40;5.63;;;2.40;;
24547;SDS011;12713;51.624;4.924;2022-07-24T11:09:06;6.05;;;2.70;;
24547;SDS011;12713;51.624;4.924;2022-07-24T11:11:32;3.72;;;2.70;;
24547;SDS011;12713;51.624;4.924;2022-07-24T11:13:58;3.10;;;2.28;;
24547;SDS011;12713;51.624;4.924;2022-07-24T11:16:27;3.47;;;2.60;;
24547;SDS011;12713;51.624;4.924;2022-07-24T11:29:20;3.20;;;2.67;;
24547;SDS011;12713;51.624;4.924;2022-07-24T11:31:48;2.92;;;2.00;;
24547;SDS011;12713;51.624;4.924;2022-07-24T11:34:14;3.13;;;2.78;;
24547;SDS011;12713;51.624;4.924;2022-07-24T11:36:41;2.65;;;2.42;;
24547;SDS011;12713;51.624;4.924;2022-07-24T11:39:07;4.35;;;2.80;;
24547;SDS011;12713;51.624;4.924;2022-07-24T11:44:10;4.63;;;2.33;;
24547;SDS011;12713;51.624;4.924;2022-07-24T11:46:36;4.43;;;2.53;;
24547;SDS011;12713;51.624;4.924;2022-07-24T11:49:04;3.05;;;2.33;;
24547;SDS011;12713;51.624;4.924;2022-07-24T11:51:44;4.38;;;2.30;;
24547;SDS011;12713;51.624;4.924;2022-07-24T11:54:11;4.32;;;2.72;;
24547;SDS011;12713;51.624;4.924;2022-07-24T11:56:37;3.78;;;2.58;;
24547;SDS011;12713;51.624;4.924;2022-07-24T11:59:06;4.93;;;2.50;;
24547;SDS011;12713;51.624;4.924;2022-07-24T12:01:46;2.75;;;2.50;;
24547;SDS011;12713;51.624;4.924;2022-07-24T12:04:12;3.08;;;2.55;;
24547;SDS011;12713;51.624;4.924;2022-07-24T12:06:38;4.18;;;2.60;;
24547;SDS011;12713;51.624;4.924;2022-07-24T12:09:07;3.90;;;2.65;;
24547;SDS011;12713;51.624;4.924;2022-07-24T12:11:33;4.43;;;2.10;;
24547;SDS011;12713;51.624;4.924;2022-07-24T12:14:12;5.57;;;2.47;;
24547;SDS011;12713;51.624;4.924;2022-07-24T12:16:39;3.97;;;2.25;;
24547;SDS011;12713;51.624;4.924;2022-07-24T12:19:16;5.63;;;2.65;;
24547;SDS011;12713;51.624;4.924;2022-07-24T12:21:43;3.13;;;2.45;;
24547;SDS011;12713;51.624;4.924;2022-07-24T12:24:09;3.70;;;3.00;;
24547;SDS011;12713;51.624;4.924;2022-07-24T12:29:21;2.85;;;2.35;;
24547;SDS011;12713;51.624;4.924;2022-07-24T12:31:47;6.50;;;2.70;;
24547;SDS011;12713;51.624;4.924;2022-07-24T12:34:14;4.35;;;2.78;;
24547;SDS011;12713;51.624;4.924;2022-07-24T12:36:41;4.68;;;2.70;;
24547;SDS011;12713;51.624;4.924;2022-07-24T12:39:09;5.18;;;2.75;;
24547;SDS011;12713;51.624;4.924;2022-07-24T12:41:44;2.90;;;2.38;;
24547;SDS011;12713;51.624;4.924;2022-07-24T12:44:12;4.82;;;2.88;;
24547;SDS011;12713;51.624;4.924;2022-07-24T12:46:42;3.65;;;2.10;;
24547;SDS011;12713;51.624;4.924;2022-07-24T12:51:46;3.20;;;2.40;;
24547;SDS011;12713;51.624;4.924;2022-07-24T12:54:16;7.13;;;2.30;;
24547;SDS011;12713;51.624;4.924;2022-07-24T12:56:43;5.60;;;2.40;;
24547;SDS011;12713;51.624;4.924;2022-07-24T12:59:09;4.88;;;2.38;;
24547;SDS011;12713;51.624;4.924;2022-07-24T13:01:47;2.53;;;2.00;;
24547;SDS011;12713;51.624;4.924;2022-07-24T13:04:15;3.63;;;2.20;;
24547;SDS011;12713;51.624;4.924;2022-07-24T13:06:43;6.28;;;2.40;;
24547;SDS011;12713;51.624;4.924;2022-07-24T13:09:12;5.38;;;2.20;;
24547;SDS011;12713;51.624;4.924;2022-07-24T13:14:44;3.05;;;2.10;;
24547;SDS011;12713;51.624;4.924;2022-07-24T13:17:12;3.55;;;2.17;;
24547;SDS011;12713;51.624;4.924;2022-07-24T13:19:38;3.58;;;2.40;;
24547;SDS011;12713;51.624;4.924;2022-07-24T13:22:05;2.78;;;2.13;;
24547;SDS011;12713;51.624;4.924;2022-07-24T13:24:31;2.60;;;2.13;;
24547;SDS011;12713;51.624;4.924;2022-07-24T13:27:02;3.08;;;2.35;;
24547;SDS011;12713;51.624;4.924;2022-07-24T13:29:39;3.33;;;2.17;;
24547;SDS011;12713;51.624;4.924;2022-07-24T13:32:05;2.35;;;2.00;;
24547;SDS011;12713;51.624;4.924;2022-07-24T13:34:32;5.97;;;2.10;;
24547;SDS011;12713;51.624;4.924;2022-07-24T13:36:58;6.10;;;1.90;;
24547;SDS011;12713;51.624;4.924;2022-07-24T13:39:27;2.90;;;1.98;;
24547;SDS011;12713;51.624;4.924;2022-07-24T13:41:55;2.70;;;1.88;;
24547;SDS011;12713;51.624;4.924;2022-07-24T13:44:24;2.40;;;1.80;;
24547;SDS011;12713;51.624;4.924;2022-07-24T13:46:50;3.33;;;1.88;;
24547;SDS011;12713;51.624;4.924;2022-07-24T13:49:17;3.85;;;1.88;;
24547;SDS011;12713;51.624;4.924;2022-07-24T13:51:51;4.03;;;2.10;;
24547;SDS011;12713;51.624;4.924;2022-07-24T13:54:17;2.70;;;1.50;;
24547;SDS011;12713;51.624;4.924;2022-07-24T13:56:43;2.00;;;1.80;;
24547;SDS011;12713;51.624;4.924;2022-07-24T13:59:09;5.70;;;1.70;;
24547;SDS011;12713;51.624;4.924;2022-07-24T14:01:35;3.25;;;1.90;;
24547;SDS011;12713;51.624;4.924;2022-07-24T14:04:05;2.17;;;1.98;;
24547;SDS011;12713;51.624;4.924;2022-07-24T14:06:33;4.13;;;2.08;;
24547;SDS011;12713;51.624;4.924;2022-07-24T14:09:03;4.15;;;1.83;;
24547;SDS011;12713;51.624;4.924;2022-07-24T14:11:31;3.38;;;2.10;;
24547;SDS011;12713;51.624;4.924;2022-07-24T14:14:01;2.25;;;1.77;;
24547;SDS011;12713;51.624;4.924;2022-07-24T14:16:28;3.05;;;1.73;;
24547;SDS011;12713;51.624;4.924;2022-07-24T14:18:57;2.67;;;1.75;;
24547;SDS011;12713;51.624;4.924;2022-07-24T14:21:24;3.90;;;1.80;;
24547;SDS011;12713;51.624;4.924;2022-07-24T14:23:50;2.42;;;1.92;;
24547;SDS011;12713;51.624;4.924;2022-07-24T14:26:16;2.72;;;1.77;;
24547;SDS011;12713;51.624;4.924;2022-07-24T14:28:42;1.95;;;1.70;;
24547;SDS011;12713;51.624;4.924;2022-07-24T14:31:35;6.65;;;1.92;;
24547;SDS011;12713;51.624;4.924;2022-07-24T14:34:03;4.15;;;1.80;;
24547;SDS011;12713;51.624;4.924;2022-07-24T14:36:30;3.53;;;1.95;;
24547;SDS011;12713;51.624;4.924;2022-07-24T14:39:12;1.98;;;1.58;;
24547;SDS011;12713;51.624;4.924;2022-07-24T14:41:39;3.53;;;1.83;;
24547;SDS011;12713;51.624;4.924;2022-07-24T14:44:08;2.88;;;1.65;;
24547;SDS011;12713;51.624;4.924;2022-07-24T14:46:34;4.03;;;1.52;;
24547;SDS011;12713;51.624;4.924;2022-07-24T14:49:00;3.03;;;1.77;;
24547;SDS011;12713;51.624;4.924;2022-07-24T14:51:26;2.28;;;1.65;;
24547;SDS011;12713;51.624;4.924;2022-07-24T14:53:55;2.05;;;1.80;;
24547;SDS011;12713;51.624;4.924;2022-07-24T14:56:22;2.03;;;1.60;;
24547;SDS011;12713;51.624;4.924;2022-07-24T14:58:48;3.97;;;1.60;;
24547;SDS011;12713;51.624;4.924;2022-07-24T15:01:14;3.95;;;1.67;;
24547;SDS011;12713;51.624;4.924;2022-07-24T15:03:40;2.13;;;1.60;;
24547;SDS011;12713;51.624;4.924;2022-07-24T15:06:06;3.08;;;1.63;;
24547;SDS011;12713;51.624;4.924;2022-07-24T15:08:32;2.03;;;1.83;;
24547;SDS011;12713;51.624;4.924;2022-07-24T15:10:58;3.80;;;1.98;;
24547;SDS011;12713;51.624;4.924;2022-07-24T15:13:25;4.15;;;2.25;;